sensor_id;sensor_type;location;lat;lon;timestamp;P1;durP1;ratioP1;P2;durP2;ratioP2
7773;SDS011;3931;42.260;23.116;2022-11-20T00:01:33;27.00;;;1.70;;
7773;SDS011;3931;42.260;23.116;2022-11-20T00:03:59;3.70;;;1.73;;
7773;SDS011;3931;42.260;23.116;2022-11-20T00:06:26;5.93;;;1.80;;
7773;SDS011;3931;42.260;23.116;2022-11-20T00:08:54;3.20;;;1.70;;
7773;SDS011;3931;42.260;23.116;2022-11-20T00:11:22;2.00;;;1.20;;
7773;SDS011;3931;42.260;23.116;2022-11-20T00:13:50;4.50;;;1.60;;
7773;SDS011;3931;42.260;23.116;2022-11-20T00:16:18;4.43;;;1.27;;
7773;SDS011;3931;42.260;23.116;2022-11-20T00:18:47;2.20;;;1.20;;
7773;SDS011;3931;42.260;23.116;2022-11-20T00:21:14;4.10;;;1.50;;
7773;SDS011;3931;42.260;23.116;2022-11-20T00:23:42;1.93;;;1.27;;
7773;SDS011;3931;42.260;23.116;2022-11-20T00:26:09;6.20;;;1.40;;
7773;SDS011;3931;42.260;23.116;2022-11-20T00:28:36;3.10;;;1.47;;
7773;SDS011;3931;42.260;23.116;2022-11-20T00:31:04;7.63;;;1.20;;
7773;SDS011;3931;42.260;23.116;2022-11-20T00:33:31;3.70;;;1.43;;
7773;SDS011;3931;42.260;23.116;2022-11-20T00:36:01;8.80;;;1.20;;
7773;SDS011;3931;42.260;23.116;2022-11-20T00:38:28;3.90;;;1.20;;
7773;SDS011;3931;42.260;23.116;2022-11-20T00:40:56;2.07;;;1.20;;
7773;SDS011;3931;42.260;23.116;2022-11-20T00:43:22;5.30;;;1.30;;
7773;SDS011;3931;42.260;23.116;2022-11-20T00:45:49;4.83;;;1.37;;
7773;SDS011;3931;42.260;23.116;2022-11-20T00:48:15;4.40;;;1.30;;
7773;SDS011;3931;42.260;23.116;2022-11-20T00:50:41;5.33;;;1.07;;
7773;SDS011;3931;42.260;23.116;2022-11-20T00:53:08;3.07;;;1.60;;
7773;SDS011;3931;42.260;23.116;2022-11-20T00:55:34;2.40;;;1.03;;
7773;SDS011;3931;42.260;23.116;2022-11-20T00:58:00;10.53;;;1.97;;
7773;SDS011;3931;42.260;23.116;2022-11-20T01:00:26;3.40;;;1.13;;
7773;SDS011;3931;42.260;23.116;2022-11-20T01:02:52;5.73;;;1.40;;
7773;SDS011;3931;42.260;23.116;2022-11-20T01:05:20;3.00;;;1.40;;
7773;SDS011;3931;42.260;23.116;2022-11-20T01:07:47;2.63;;;1.20;;
7773;SDS011;3931;42.260;23.116;2022-11-20T01:10:13;2.10;;;1.40;;
7773;SDS011;3931;42.260;23.116;2022-11-20T01:12:40;5.03;;;1.10;;
7773;SDS011;3931;42.260;23.116;2022-11-20T01:15:06;7.57;;;1.30;;
7773;SDS011;3931;42.260;23.116;2022-11-20T01:17:33;4.57;;;1.10;;
7773;SDS011;3931;42.260;23.116;2022-11-20T01:20:00;1.93;;;1.20;;
7773;SDS011;3931;42.260;23.116;2022-11-20T01:22:26;5.70;;;1.30;;
7773;SDS011;3931;42.260;23.116;2022-11-20T01:24:52;6.17;;;1.20;;
7773;SDS011;3931;42.260;23.116;2022-11-20T01:27:18;4.33;;;1.10;;
7773;SDS011;3931;42.260;23.116;2022-11-20T01:29:44;9.03;;;1.80;;
7773;SDS011;3931;42.260;23.116;2022-11-20T01:32:11;5.77;;;1.23;;
7773;SDS011;3931;42.260;23.116;2022-11-20T01:34:37;3.40;;;1.40;;
7773;SDS011;3931;42.260;23.116;2022-11-20T01:37:03;7.10;;;1.70;;
7773;SDS011;3931;42.260;23.116;2022-11-20T01:39:29;3.57;;;1.27;;
7773;SDS011;3931;42.260;23.116;2022-11-20T01:41:55;10.40;;;1.37;;
7773;SDS011;3931;42.260;23.116;2022-11-20T01:44:45;2.83;;;1.00;;
7773;SDS011;3931;42.260;23.116;2022-11-20T01:47:15;7.50;;;1.30;;
7773;SDS011;3931;42.260;23.116;2022-11-20T01:49:46;1.40;;;0.90;;
7773;SDS011;3931;42.260;23.116;2022-11-20T01:52:16;4.47;;;1.93;;
7773;SDS011;3931;42.260;23.116;2022-11-20T01:54:45;5.07;;;1.40;;
7773;SDS011;3931;42.260;23.116;2022-11-20T01:57:14;3.43;;;1.20;;
7773;SDS011;3931;42.260;23.116;2022-11-20T01:59:44;1.90;;;0.93;;
7773;SDS011;3931;42.260;23.116;2022-11-20T02:02:14;6.07;;;1.27;;
7773;SDS011;3931;42.260;23.116;2022-11-20T02:04:41;4.30;;;1.13;;
7773;SDS011;3931;42.260;23.116;2022-11-20T02:07:07;3.10;;;1.20;;
7773;SDS011;3931;42.260;23.116;2022-11-20T02:09:33;1.77;;;1.00;;
7773;SDS011;3931;42.260;23.116;2022-11-20T02:11:59;2.30;;;1.20;;
7773;SDS011;3931;42.260;23.116;2022-11-20T02:14:26;8.30;;;1.23;;
7773;SDS011;3931;42.260;23.116;2022-11-20T02:16:54;10.73;;;3.37;;
7773;SDS011;3931;42.260;23.116;2022-11-20T02:19:22;10.10;;;1.47;;
7773;SDS011;3931;42.260;23.116;2022-11-20T02:21:54;3.63;;;1.00;;
7773;SDS011;3931;42.260;23.116;2022-11-20T02:24:26;5.20;;;1.40;;
7773;SDS011;3931;42.260;23.116;2022-11-20T02:26:53;5.07;;;1.50;;
7773;SDS011;3931;42.260;23.116;2022-11-20T02:29:23;4.17;;;1.30;;
7773;SDS011;3931;42.260;23.116;2022-11-20T02:31:52;4.00;;;1.57;;
7773;SDS011;3931;42.260;23.116;2022-11-20T02:34:21;2.30;;;1.00;;
7773;SDS011;3931;42.260;23.116;2022-11-20T02:36:47;6.97;;;1.37;;
7773;SDS011;3931;42.260;23.116;2022-11-20T02:39:15;2.87;;;1.20;;
7773;SDS011;3931;42.260;23.116;2022-11-20T02:41:42;3.43;;;1.50;;
7773;SDS011;3931;42.260;23.116;2022-11-20T02:44:09;3.47;;;1.70;;
7773;SDS011;3931;42.260;23.116;2022-11-20T02:46:35;6.57;;;1.37;;
7773;SDS011;3931;42.260;23.116;2022-11-20T02:49:01;4.70;;;1.50;;
7773;SDS011;3931;42.260;23.116;2022-11-20T02:51:28;3.70;;;1.20;;
7773;SDS011;3931;42.260;23.116;2022-11-20T02:53:54;5.53;;;1.40;;
7773;SDS011;3931;42.260;23.116;2022-11-20T02:56:20;6.13;;;1.40;;
7773;SDS011;3931;42.260;23.116;2022-11-20T02:58:47;6.83;;;2.03;;
7773;SDS011;3931;42.260;23.116;2022-11-20T03:01:13;6.20;;;1.70;;
7773;SDS011;3931;42.260;23.116;2022-11-20T03:03:39;6.10;;;1.53;;
7773;SDS011;3931;42.260;23.116;2022-11-20T03:06:06;6.10;;;1.33;;
7773;SDS011;3931;42.260;23.116;2022-11-20T03:08:32;1.73;;;1.00;;
7773;SDS011;3931;42.260;23.116;2022-11-20T03:11:01;2.50;;;1.33;;
7773;SDS011;3931;42.260;23.116;2022-11-20T03:13:28;2.93;;;1.17;;
7773;SDS011;3931;42.260;23.116;2022-11-20T03:15:55;5.83;;;1.70;;
7773;SDS011;3931;42.260;23.116;2022-11-20T03:18:21;2.67;;;1.10;;
7773;SDS011;3931;42.260;23.116;2022-11-20T03:20:47;5.40;;;2.10;;
7773;SDS011;3931;42.260;23.116;2022-11-20T03:23:13;7.40;;;1.53;;
7773;SDS011;3931;42.260;23.116;2022-11-20T03:25:39;4.63;;;1.37;;
7773;SDS011;3931;42.260;23.116;2022-11-20T03:28:05;4.10;;;1.17;;
7773;SDS011;3931;42.260;23.116;2022-11-20T03:30:31;2.57;;;1.40;;
7773;SDS011;3931;42.260;23.116;2022-11-20T03:32:58;8.70;;;1.37;;
7773;SDS011;3931;42.260;23.116;2022-11-20T03:35:25;5.83;;;1.40;;
7773;SDS011;3931;42.260;23.116;2022-11-20T03:37:51;3.30;;;1.30;;
7773;SDS011;3931;42.260;23.116;2022-11-20T03:40:17;4.40;;;1.20;;
7773;SDS011;3931;42.260;23.116;2022-11-20T03:42:43;2.53;;;1.40;;
7773;SDS011;3931;42.260;23.116;2022-11-20T03:45:12;4.30;;;1.70;;
7773;SDS011;3931;42.260;23.116;2022-11-20T03:47:38;4.70;;;1.37;;
7773;SDS011;3931;42.260;23.116;2022-11-20T03:50:06;4.10;;;1.37;;
7773;SDS011;3931;42.260;23.116;2022-11-20T03:52:32;3.13;;;1.67;;
7773;SDS011;3931;42.260;23.116;2022-11-20T03:54:59;4.70;;;1.60;;
7773;SDS011;3931;42.260;23.116;2022-11-20T03:57:25;2.40;;;1.50;;
7773;SDS011;3931;42.260;23.116;2022-11-20T03:59:51;3.93;;;1.60;;
7773;SDS011;3931;42.260;23.116;2022-11-20T04:02:17;2.60;;;1.40;;
7773;SDS011;3931;42.260;23.116;2022-11-20T04:04:43;8.77;;;1.67;;
7773;SDS011;3931;42.260;23.116;2022-11-20T04:07:10;6.20;;;1.80;;
7773;SDS011;3931;42.260;23.116;2022-11-20T04:09:36;6.70;;;2.10;;
7773;SDS011;3931;42.260;23.116;2022-11-20T04:12:02;9.83;;;2.43;;
7773;SDS011;3931;42.260;23.116;2022-11-20T04:14:28;5.43;;;1.57;;
7773;SDS011;3931;42.260;23.116;2022-11-20T04:16:55;3.97;;;1.43;;
7773;SDS011;3931;42.260;23.116;2022-11-20T04:19:21;5.97;;;2.00;;
7773;SDS011;3931;42.260;23.116;2022-11-20T04:21:47;8.17;;;2.20;;
7773;SDS011;3931;42.260;23.116;2022-11-20T04:24:14;4.43;;;2.20;;
7773;SDS011;3931;42.260;23.116;2022-11-20T04:26:40;5.97;;;2.80;;
7773;SDS011;3931;42.260;23.116;2022-11-20T04:29:09;5.93;;;2.23;;
7773;SDS011;3931;42.260;23.116;2022-11-20T04:31:36;13.33;;;2.73;;
7773;SDS011;3931;42.260;23.116;2022-11-20T04:34:03;16.40;;;3.40;;
7773;SDS011;3931;42.260;23.116;2022-11-20T04:36:30;9.63;;;3.00;;
7773;SDS011;3931;42.260;23.116;2022-11-20T04:38:58;7.63;;;2.90;;
7773;SDS011;3931;42.260;23.116;2022-11-20T04:41:26;11.73;;;2.93;;
7773;SDS011;3931;42.260;23.116;2022-11-20T04:43:54;10.73;;;2.90;;
7773;SDS011;3931;42.260;23.116;2022-11-20T04:46:24;5.30;;;2.43;;
7773;SDS011;3931;42.260;23.116;2022-11-20T04:48:51;9.10;;;2.33;;
7773;SDS011;3931;42.260;23.116;2022-11-20T04:51:17;8.60;;;2.63;;
7773;SDS011;3931;42.260;23.116;2022-11-20T04:53:43;13.03;;;2.80;;
7773;SDS011;3931;42.260;23.116;2022-11-20T04:56:10;4.10;;;2.50;;
7773;SDS011;3931;42.260;23.116;2022-11-20T04:58:38;9.33;;;2.73;;
7773;SDS011;3931;42.260;23.116;2022-11-20T05:01:05;7.70;;;2.50;;
7773;SDS011;3931;42.260;23.116;2022-11-20T05:03:32;6.90;;;3.20;;
7773;SDS011;3931;42.260;23.116;2022-11-20T05:05:59;9.23;;;2.67;;
7773;SDS011;3931;42.260;23.116;2022-11-20T05:08:26;5.53;;;2.70;;
7773;SDS011;3931;42.260;23.116;2022-11-20T05:10:53;5.97;;;2.33;;
7773;SDS011;3931;42.260;23.116;2022-11-20T05:13:19;10.27;;;3.00;;
7773;SDS011;3931;42.260;23.116;2022-11-20T05:15:46;9.60;;;4.13;;
7773;SDS011;3931;42.260;23.116;2022-11-20T05:18:12;12.33;;;2.73;;
7773;SDS011;3931;42.260;23.116;2022-11-20T05:20:38;8.70;;;2.90;;
7773;SDS011;3931;42.260;23.116;2022-11-20T05:23:04;8.90;;;3.17;;
7773;SDS011;3931;42.260;23.116;2022-11-20T05:25:30;7.50;;;3.33;;
7773;SDS011;3931;42.260;23.116;2022-11-20T05:27:56;10.87;;;4.47;;
7773;SDS011;3931;42.260;23.116;2022-11-20T05:30:22;10.40;;;5.60;;
7773;SDS011;3931;42.260;23.116;2022-11-20T05:32:49;7.30;;;3.57;;
7773;SDS011;3931;42.260;23.116;2022-11-20T05:35:15;13.43;;;3.43;;
7773;SDS011;3931;42.260;23.116;2022-11-20T05:37:41;9.60;;;3.10;;
7773;SDS011;3931;42.260;23.116;2022-11-20T05:40:08;11.10;;;3.47;;
7773;SDS011;3931;42.260;23.116;2022-11-20T05:42:35;12.90;;;3.27;;
7773;SDS011;3931;42.260;23.116;2022-11-20T05:45:02;9.63;;;3.73;;
7773;SDS011;3931;42.260;23.116;2022-11-20T05:47:31;8.00;;;3.93;;
7773;SDS011;3931;42.260;23.116;2022-11-20T05:49:59;10.20;;;2.40;;
7773;SDS011;3931;42.260;23.116;2022-11-20T05:52:27;7.63;;;2.30;;
7773;SDS011;3931;42.260;23.116;2022-11-20T05:54:54;7.30;;;2.27;;
7773;SDS011;3931;42.260;23.116;2022-11-20T05:57:20;6.00;;;2.00;;
7773;SDS011;3931;42.260;23.116;2022-11-20T05:59:46;6.43;;;3.60;;
7773;SDS011;3931;42.260;23.116;2022-11-20T06:02:12;2.93;;;1.97;;
7773;SDS011;3931;42.260;23.116;2022-11-20T06:04:38;10.23;;;2.80;;
7773;SDS011;3931;42.260;23.116;2022-11-20T06:07:05;2.90;;;1.87;;
7773;SDS011;3931;42.260;23.116;2022-11-20T06:09:32;7.43;;;2.27;;
7773;SDS011;3931;42.260;23.116;2022-11-20T06:11:58;9.10;;;2.83;;
7773;SDS011;3931;42.260;23.116;2022-11-20T06:14:24;9.63;;;3.53;;
7773;SDS011;3931;42.260;23.116;2022-11-20T06:16:50;7.03;;;2.63;;
7773;SDS011;3931;42.260;23.116;2022-11-20T06:19:16;8.83;;;3.97;;
7773;SDS011;3931;42.260;23.116;2022-11-20T06:21:42;6.97;;;3.00;;
7773;SDS011;3931;42.260;23.116;2022-11-20T06:24:09;5.67;;;2.80;;
7773;SDS011;3931;42.260;23.116;2022-11-20T06:26:36;10.20;;;3.70;;
7773;SDS011;3931;42.260;23.116;2022-11-20T06:29:02;12.30;;;5.70;;
7773;SDS011;3931;42.260;23.116;2022-11-20T06:31:28;6.40;;;3.40;;
7773;SDS011;3931;42.260;23.116;2022-11-20T06:33:54;6.07;;;2.90;;
7773;SDS011;3931;42.260;23.116;2022-11-20T06:36:21;10.87;;;2.93;;
7773;SDS011;3931;42.260;23.116;2022-11-20T06:38:48;7.30;;;3.73;;
7773;SDS011;3931;42.260;23.116;2022-11-20T06:41:16;9.87;;;3.53;;
7773;SDS011;3931;42.260;23.116;2022-11-20T06:43:43;13.80;;;3.60;;
7773;SDS011;3931;42.260;23.116;2022-11-20T06:46:09;4.53;;;2.40;;
7773;SDS011;3931;42.260;23.116;2022-11-20T06:48:36;7.70;;;2.83;;
7773;SDS011;3931;42.260;23.116;2022-11-20T06:51:02;6.13;;;2.23;;
7773;SDS011;3931;42.260;23.116;2022-11-20T06:53:29;16.93;;;4.30;;
7773;SDS011;3931;42.260;23.116;2022-11-20T06:55:56;9.70;;;2.70;;
7773;SDS011;3931;42.260;23.116;2022-11-20T06:58:25;4.50;;;2.00;;
7773;SDS011;3931;42.260;23.116;2022-11-20T07:00:52;7.03;;;2.70;;
7773;SDS011;3931;42.260;23.116;2022-11-20T07:03:18;7.93;;;2.60;;
7773;SDS011;3931;42.260;23.116;2022-11-20T07:05:45;5.63;;;2.30;;
7773;SDS011;3931;42.260;23.116;2022-11-20T07:08:11;7.50;;;2.57;;
7773;SDS011;3931;42.260;23.116;2022-11-20T07:10:37;7.30;;;3.17;;
7773;SDS011;3931;42.260;23.116;2022-11-20T07:13:04;11.03;;;4.03;;
7773;SDS011;3931;42.260;23.116;2022-11-20T07:15:32;9.93;;;3.70;;
7773;SDS011;3931;42.260;23.116;2022-11-20T07:17:58;15.67;;;5.10;;
7773;SDS011;3931;42.260;23.116;2022-11-20T07:20:25;22.97;;;9.13;;
7773;SDS011;3931;42.260;23.116;2022-11-20T07:22:53;13.20;;;7.93;;
7773;SDS011;3931;42.260;23.116;2022-11-20T07:25:20;18.53;;;9.30;;
7773;SDS011;3931;42.260;23.116;2022-11-20T07:27:46;15.83;;;5.60;;
7773;SDS011;3931;42.260;23.116;2022-11-20T07:32:40;10.17;;;4.77;;
7773;SDS011;3931;42.260;23.116;2022-11-20T07:35:06;17.53;;;8.03;;
7773;SDS011;3931;42.260;23.116;2022-11-20T07:37:33;15.90;;;7.83;;
7773;SDS011;3931;42.260;23.116;2022-11-20T07:40:00;17.13;;;6.40;;
7773;SDS011;3931;42.260;23.116;2022-11-20T07:42:26;11.13;;;4.80;;
7773;SDS011;3931;42.260;23.116;2022-11-20T07:44:52;18.77;;;7.33;;
7773;SDS011;3931;42.260;23.116;2022-11-20T07:47:18;25.73;;;5.33;;
7773;SDS011;3931;42.260;23.116;2022-11-20T07:49:45;11.10;;;3.60;;
7773;SDS011;3931;42.260;23.116;2022-11-20T07:52:11;12.70;;;4.40;;
7773;SDS011;3931;42.260;23.116;2022-11-20T07:54:37;16.17;;;6.03;;
7773;SDS011;3931;42.260;23.116;2022-11-20T07:57:03;17.00;;;5.87;;
7773;SDS011;3931;42.260;23.116;2022-11-20T07:59:29;17.90;;;7.80;;
7773;SDS011;3931;42.260;23.116;2022-11-20T08:01:55;9.80;;;4.80;;
7773;SDS011;3931;42.260;23.116;2022-11-20T08:04:21;41.83;;;17.70;;
7773;SDS011;3931;42.260;23.116;2022-11-20T08:06:49;15.67;;;5.90;;
7773;SDS011;3931;42.260;23.116;2022-11-20T08:09:15;10.53;;;4.70;;
7773;SDS011;3931;42.260;23.116;2022-11-20T08:11:41;35.87;;;16.87;;
7773;SDS011;3931;42.260;23.116;2022-11-20T08:14:25;15.53;;;4.43;;
7773;SDS011;3931;42.260;23.116;2022-11-20T08:16:52;14.30;;;4.83;;
7773;SDS011;3931;42.260;23.116;2022-11-20T08:19:18;11.13;;;4.50;;
7773;SDS011;3931;42.260;23.116;2022-11-20T08:21:44;9.53;;;5.00;;
7773;SDS011;3931;42.260;23.116;2022-11-20T08:24:11;12.70;;;4.10;;
7773;SDS011;3931;42.260;23.116;2022-11-20T08:26:38;14.27;;;4.87;;
7773;SDS011;3931;42.260;23.116;2022-11-20T08:29:05;16.70;;;7.90;;
7773;SDS011;3931;42.260;23.116;2022-11-20T08:31:31;16.03;;;5.60;;
7773;SDS011;3931;42.260;23.116;2022-11-20T08:33:58;9.63;;;4.63;;
7773;SDS011;3931;42.260;23.116;2022-11-20T08:36:24;16.10;;;5.90;;
7773;SDS011;3931;42.260;23.116;2022-11-20T08:38:51;14.67;;;5.47;;
7773;SDS011;3931;42.260;23.116;2022-11-20T08:41:18;15.60;;;5.80;;
7773;SDS011;3931;42.260;23.116;2022-11-20T08:43:56;13.33;;;5.30;;
7773;SDS011;3931;42.260;23.116;2022-11-20T08:46:23;17.93;;;8.53;;
7773;SDS011;3931;42.260;23.116;2022-11-20T08:48:50;15.17;;;7.30;;
7773;SDS011;3931;42.260;23.116;2022-11-20T08:51:17;11.30;;;4.50;;
7773;SDS011;3931;42.260;23.116;2022-11-20T08:53:43;24.90;;;6.93;;
7773;SDS011;3931;42.260;23.116;2022-11-20T08:56:10;17.00;;;4.73;;
7773;SDS011;3931;42.260;23.116;2022-11-20T08:58:37;18.40;;;5.70;;
7773;SDS011;3931;42.260;23.116;2022-11-20T09:01:03;13.33;;;5.67;;
7773;SDS011;3931;42.260;23.116;2022-11-20T09:03:30;17.33;;;8.87;;
7773;SDS011;3931;42.260;23.116;2022-11-20T09:05:56;32.40;;;10.80;;
7773;SDS011;3931;42.260;23.116;2022-11-20T09:08:24;17.20;;;6.17;;
7773;SDS011;3931;42.260;23.116;2022-11-20T09:10:51;14.87;;;7.30;;
7773;SDS011;3931;42.260;23.116;2022-11-20T09:13:17;20.57;;;5.80;;
7773;SDS011;3931;42.260;23.116;2022-11-20T09:15:44;22.93;;;6.50;;
7773;SDS011;3931;42.260;23.116;2022-11-20T09:18:10;13.60;;;5.37;;
7773;SDS011;3931;42.260;23.116;2022-11-20T09:20:36;19.67;;;6.07;;
7773;SDS011;3931;42.260;23.116;2022-11-20T09:23:02;9.90;;;4.30;;
7773;SDS011;3931;42.260;23.116;2022-11-20T09:25:28;16.70;;;6.70;;
7773;SDS011;3931;42.260;23.116;2022-11-20T09:27:55;23.47;;;6.23;;
7773;SDS011;3931;42.260;23.116;2022-11-20T09:30:21;22.87;;;6.87;;
7773;SDS011;3931;42.260;23.116;2022-11-20T09:32:48;24.50;;;8.70;;
7773;SDS011;3931;42.260;23.116;2022-11-20T09:35:14;21.27;;;5.70;;
7773;SDS011;3931;42.260;23.116;2022-11-20T09:37:40;17.20;;;5.57;;
7773;SDS011;3931;42.260;23.116;2022-11-20T09:40:08;21.30;;;6.60;;
7773;SDS011;3931;42.260;23.116;2022-11-20T09:42:46;22.53;;;7.13;;
7773;SDS011;3931;42.260;23.116;2022-11-20T09:45:20;23.27;;;7.07;;
7773;SDS011;3931;42.260;23.116;2022-11-20T09:47:55;19.27;;;7.53;;
7773;SDS011;3931;42.260;23.116;2022-11-20T09:50:42;28.87;;;8.60;;
7773;SDS011;3931;42.260;23.116;2022-11-20T09:53:15;21.00;;;6.40;;
7773;SDS011;3931;42.260;23.116;2022-11-20T09:55:49;18.03;;;6.20;;
7773;SDS011;3931;42.260;23.116;2022-11-20T09:58:16;20.10;;;6.50;;
7773;SDS011;3931;42.260;23.116;2022-11-20T10:00:50;24.23;;;6.90;;
7773;SDS011;3931;42.260;23.116;2022-11-20T10:03:23;22.93;;;6.30;;
7773;SDS011;3931;42.260;23.116;2022-11-20T10:06:01;13.37;;;5.30;;
7773;SDS011;3931;42.260;23.116;2022-11-20T10:08:31;15.33;;;4.77;;
7773;SDS011;3931;42.260;23.116;2022-11-20T10:11:06;15.67;;;5.93;;
7773;SDS011;3931;42.260;23.116;2022-11-20T10:13:44;29.67;;;5.23;;
7773;SDS011;3931;42.260;23.116;2022-11-20T10:16:24;16.23;;;5.50;;
7773;SDS011;3931;42.260;23.116;2022-11-20T10:19:05;20.07;;;6.53;;
7773;SDS011;3931;42.260;23.116;2022-11-20T10:21:52;36.10;;;13.43;;
7773;SDS011;3931;42.260;23.116;2022-11-20T10:24:37;20.77;;;5.60;;
7773;SDS011;3931;42.260;23.116;2022-11-20T10:27:15;22.23;;;5.20;;
7773;SDS011;3931;42.260;23.116;2022-11-20T10:30:14;27.70;;;5.50;;
7773;SDS011;3931;42.260;23.116;2022-11-20T10:32:42;18.17;;;5.17;;
7773;SDS011;3931;42.260;23.116;2022-11-20T10:35:16;19.00;;;6.10;;
7773;SDS011;3931;42.260;23.116;2022-11-20T10:37:48;16.53;;;4.80;;
7773;SDS011;3931;42.260;23.116;2022-11-20T10:40:21;19.07;;;4.10;;
7773;SDS011;3931;42.260;23.116;2022-11-20T10:42:53;23.03;;;4.83;;
7773;SDS011;3931;42.260;23.116;2022-11-20T10:45:27;16.57;;;5.10;;
7773;SDS011;3931;42.260;23.116;2022-11-20T10:48:07;23.50;;;5.70;;
7773;SDS011;3931;42.260;23.116;2022-11-20T10:50:40;13.93;;;3.40;;
7773;SDS011;3931;42.260;23.116;2022-11-20T10:53:15;13.57;;;4.20;;
7773;SDS011;3931;42.260;23.116;2022-11-20T10:55:50;34.93;;;6.30;;
7773;SDS011;3931;42.260;23.116;2022-11-20T10:58:22;25.23;;;5.27;;
7773;SDS011;3931;42.260;23.116;2022-11-20T11:01:04;25.83;;;6.03;;
7773;SDS011;3931;42.260;23.116;2022-11-20T11:03:30;23.00;;;5.67;;
7773;SDS011;3931;42.260;23.116;2022-11-20T11:05:59;20.20;;;6.83;;
7773;SDS011;3931;42.260;23.116;2022-11-20T11:08:32;26.57;;;6.93;;
7773;SDS011;3931;42.260;23.116;2022-11-20T11:11:02;22.27;;;4.80;;
7773;SDS011;3931;42.260;23.116;2022-11-20T11:13:37;20.20;;;4.13;;
7773;SDS011;3931;42.260;23.116;2022-11-20T11:16:03;24.20;;;4.10;;
7773;SDS011;3931;42.260;23.116;2022-11-20T11:18:30;30.43;;;4.93;;
7773;SDS011;3931;42.260;23.116;2022-11-20T11:20:58;12.00;;;3.20;;
7773;SDS011;3931;42.260;23.116;2022-11-20T11:23:29;19.17;;;8.20;;
7773;SDS011;3931;42.260;23.116;2022-11-20T11:25:58;12.57;;;3.90;;
7773;SDS011;3931;42.260;23.116;2022-11-20T11:28:25;9.03;;;5.13;;
7773;SDS011;3931;42.260;23.116;2022-11-20T11:30:53;14.07;;;3.13;;
7773;SDS011;3931;42.260;23.116;2022-11-20T11:33:20;15.07;;;2.33;;
7773;SDS011;3931;42.260;23.116;2022-11-20T11:35:49;24.47;;;15.43;;
7773;SDS011;3931;42.260;23.116;2022-11-20T11:38:21;11.53;;;4.43;;
7773;SDS011;3931;42.260;23.116;2022-11-20T11:40:48;14.50;;;2.90;;
7773;SDS011;3931;42.260;23.116;2022-11-20T11:43:17;14.80;;;2.60;;
7773;SDS011;3931;42.260;23.116;2022-11-20T11:46:05;19.30;;;9.03;;
7773;SDS011;3931;42.260;23.116;2022-11-20T11:48:54;11.37;;;3.20;;
7773;SDS011;3931;42.260;23.116;2022-11-20T11:51:22;17.37;;;7.83;;
7773;SDS011;3931;42.260;23.116;2022-11-20T11:53:49;15.20;;;5.10;;
7773;SDS011;3931;42.260;23.116;2022-11-20T11:56:16;12.30;;;4.10;;
7773;SDS011;3931;42.260;23.116;2022-11-20T11:58:43;9.53;;;4.30;;
7773;SDS011;3931;42.260;23.116;2022-11-20T12:01:17;37.73;;;19.83;;
7773;SDS011;3931;42.260;23.116;2022-11-20T12:03:52;25.37;;;11.20;;
7773;SDS011;3931;42.260;23.116;2022-11-20T12:06:24;15.10;;;8.17;;
7773;SDS011;3931;42.260;23.116;2022-11-20T12:08:55;8.33;;;3.30;;
7773;SDS011;3931;42.260;23.116;2022-11-20T12:11:29;15.40;;;5.13;;
7773;SDS011;3931;42.260;23.116;2022-11-20T12:14:00;15.10;;;6.07;;
7773;SDS011;3931;42.260;23.116;2022-11-20T12:16:34;25.70;;;6.70;;
7773;SDS011;3931;42.260;23.116;2022-11-20T12:19:03;16.73;;;7.00;;
7773;SDS011;3931;42.260;23.116;2022-11-20T12:21:36;19.30;;;7.97;;
7773;SDS011;3931;42.260;23.116;2022-11-20T12:27:22;19.33;;;7.07;;
7773;SDS011;3931;42.260;23.116;2022-11-20T12:30:11;14.40;;;7.40;;
7773;SDS011;3931;42.260;23.116;2022-11-20T12:32:49;16.80;;;6.30;;
7773;SDS011;3931;42.260;23.116;2022-11-20T12:35:38;25.37;;;12.80;;
7773;SDS011;3931;42.260;23.116;2022-11-20T12:41:21;26.93;;;8.67;;
7773;SDS011;3931;42.260;23.116;2022-11-20T12:44:21;23.47;;;11.20;;
7773;SDS011;3931;42.260;23.116;2022-11-20T12:47:19;36.97;;;11.30;;
7773;SDS011;3931;42.260;23.116;2022-11-20T12:49:56;33.17;;;9.63;;
7773;SDS011;3931;42.260;23.116;2022-11-20T12:52:35;23.50;;;8.80;;
7773;SDS011;3931;42.260;23.116;2022-11-20T12:57:55;29.40;;;8.10;;
7773;SDS011;3931;42.260;23.116;2022-11-20T13:00:25;31.27;;;9.97;;
7773;SDS011;3931;42.260;23.116;2022-11-20T13:02:58;34.87;;;9.27;;
7773;SDS011;3931;42.260;23.116;2022-11-20T13:05:48;37.17;;;11.23;;
7773;SDS011;3931;42.260;23.116;2022-11-20T13:08:21;35.87;;;10.30;;
7773;SDS011;3931;42.260;23.116;2022-11-20T13:10:50;31.17;;;9.27;;
7773;SDS011;3931;42.260;23.116;2022-11-20T13:13:23;30.77;;;8.97;;
7773;SDS011;3931;42.260;23.116;2022-11-20T13:15:55;28.13;;;8.47;;
7773;SDS011;3931;42.260;23.116;2022-11-20T13:18:25;37.57;;;8.80;;
7773;SDS011;3931;42.260;23.116;2022-11-20T13:20:52;33.27;;;7.40;;
7773;SDS011;3931;42.260;23.116;2022-11-20T13:23:24;24.63;;;9.33;;
7773;SDS011;3931;42.260;23.116;2022-11-20T13:26:01;31.40;;;7.20;;
7773;SDS011;3931;42.260;23.116;2022-11-20T13:28:30;27.80;;;8.30;;
7773;SDS011;3931;42.260;23.116;2022-11-20T13:30:57;31.60;;;9.43;;
7773;SDS011;3931;42.260;23.116;2022-11-20T13:33:25;27.17;;;10.03;;
7773;SDS011;3931;42.260;23.116;2022-11-20T13:35:55;25.50;;;8.30;;
7773;SDS011;3931;42.260;23.116;2022-11-20T13:38:23;20.83;;;7.00;;
7773;SDS011;3931;42.260;23.116;2022-11-20T13:40:52;27.00;;;8.30;;
7773;SDS011;3931;42.260;23.116;2022-11-20T13:43:22;31.50;;;9.10;;
7773;SDS011;3931;42.260;23.116;2022-11-20T13:45:57;32.50;;;8.70;;
7773;SDS011;3931;42.260;23.116;2022-11-20T13:48:26;17.97;;;6.70;;
7773;SDS011;3931;42.260;23.116;2022-11-20T13:51:00;20.37;;;7.47;;
7773;SDS011;3931;42.260;23.116;2022-11-20T13:53:46;19.17;;;8.47;;
7773;SDS011;3931;42.260;23.116;2022-11-20T13:56:24;24.17;;;7.07;;
7773;SDS011;3931;42.260;23.116;2022-11-20T13:59:07;28.40;;;8.70;;
7773;SDS011;3931;42.260;23.116;2022-11-20T14:01:40;32.13;;;12.20;;
7773;SDS011;3931;42.260;23.116;2022-11-20T14:04:11;33.10;;;13.30;;
7773;SDS011;3931;42.260;23.116;2022-11-20T14:06:44;32.33;;;10.97;;
7773;SDS011;3931;42.260;23.116;2022-11-20T14:09:12;21.17;;;7.20;;
7773;SDS011;3931;42.260;23.116;2022-11-20T14:11:50;48.83;;;12.47;;
7773;SDS011;3931;42.260;23.116;2022-11-20T14:14:17;37.57;;;12.83;;
7773;SDS011;3931;42.260;23.116;2022-11-20T14:16:45;27.80;;;9.10;;
7773;SDS011;3931;42.260;23.116;2022-11-20T14:19:24;32.00;;;9.10;;
7773;SDS011;3931;42.260;23.116;2022-11-20T14:21:54;20.93;;;9.23;;
7773;SDS011;3931;42.260;23.116;2022-11-20T14:24:31;30.17;;;11.33;;
7773;SDS011;3931;42.260;23.116;2022-11-20T14:26:57;32.63;;;8.80;;
7773;SDS011;3931;42.260;23.116;2022-11-20T14:29:27;27.73;;;8.70;;
7773;SDS011;3931;42.260;23.116;2022-11-20T14:31:59;38.63;;;9.00;;
7773;SDS011;3931;42.260;23.116;2022-11-20T14:34:27;37.73;;;10.20;;
7773;SDS011;3931;42.260;23.116;2022-11-20T14:36:56;28.23;;;8.33;;
7773;SDS011;3931;42.260;23.116;2022-11-20T14:39:25;20.90;;;8.10;;
7773;SDS011;3931;42.260;23.116;2022-11-20T14:41:55;30.17;;;12.70;;
7773;SDS011;3931;42.260;23.116;2022-11-20T14:44:23;24.13;;;10.63;;
7773;SDS011;3931;42.260;23.116;2022-11-20T14:46:52;19.70;;;9.27;;
7773;SDS011;3931;42.260;23.116;2022-11-20T14:49:21;24.00;;;6.53;;
7773;SDS011;3931;42.260;23.116;2022-11-20T14:51:58;22.07;;;7.20;;
7773;SDS011;3931;42.260;23.116;2022-11-20T14:54:24;26.70;;;9.17;;
7773;SDS011;3931;42.260;23.116;2022-11-20T14:56:55;26.47;;;6.60;;
7773;SDS011;3931;42.260;23.116;2022-11-20T14:59:23;22.37;;;10.77;;
7773;SDS011;3931;42.260;23.116;2022-11-20T15:01:54;24.47;;;9.50;;
7773;SDS011;3931;42.260;23.116;2022-11-20T15:04:21;11.27;;;5.40;;
7773;SDS011;3931;42.260;23.116;2022-11-20T15:06:49;15.40;;;6.07;;
7773;SDS011;3931;42.260;23.116;2022-11-20T15:09:16;21.17;;;7.73;;
7773;SDS011;3931;42.260;23.116;2022-11-20T15:11:50;23.77;;;7.73;;
7773;SDS011;3931;42.260;23.116;2022-11-20T15:14:19;35.27;;;10.43;;
7773;SDS011;3931;42.260;23.116;2022-11-20T15:16:45;24.53;;;7.10;;